WMSA/SZB METAR and TAF weather

Enter ICAO airport designator
Station Type Date Time Source
WMSA METAR 2020/09/18 23:00 UTC NOAA

WMSA 182300Z 11004KT 050V150 9999 FEW026 26/23 Q1008


Station Type Date Time Source
WMSA Decoded METAR 2020/09/18 23:00 UTC NOAA

Subang/Sultan Abdul Aziz Shah Airport, Malaysia (WMSA) 03-07N 101-32E
Sep 18, 2020 - 07:00 PM EDT / 2020.09.18 2300 UTC
Wind: from the ESE (110 degrees) at 5 MPH (4 KT) (direction variable):0
Visibility: greater than 7 mile(s):0
Sky conditions: mostly clear
Temperature: 78 F (26 C)
Dew Point: 73 F (23 C)
Relative Humidity: 83%
Pressure (altimeter): 29.77 in. Hg (1008 hPa)
ob: WMSA 182300Z 11004KT 050V150 9999 FEW026 26/23 Q1008
cycle: 23

Station Type Date Time Source
WMSA TAF 2020/09/18 18:12 UTC NOAA

TAF WMSA 181700Z 1818/1918 18006KT 9999 FEW017CB
TEMPO 1820/1900 4000 TSRA FEW010 FEW016CB SCT024 PROB30
TEMPO 1905/1910 5000 SHRA FEW016CB SCT018

Example: see airport list